sensor_id;sensor_type;location;lat;lon;timestamp;pressure;altitude;pressure_sealevel;temperature;humidity
10261;BME280;5175;42.606;23.388;2023-02-02T00:00:49;93804.56;;;4.32;63.35
10261;BME280;5175;42.606;23.388;2023-02-02T00:03:16;93811.75;;;4.37;62.25
10261;BME280;5175;42.606;23.388;2023-02-02T00:05:44;93810.81;;;4.43;61.46
10261;BME280;5175;42.606;23.388;2023-02-02T00:08:12;93803.66;;;4.60;60.57
10261;BME280;5175;42.606;23.388;2023-02-02T00:10:40;93811.44;;;4.67;60.33
10261;BME280;5175;42.606;23.388;2023-02-02T00:13:07;93822.66;;;4.74;59.90
10261;BME280;5175;42.606;23.388;2023-02-02T00:15:34;93810.00;;;4.59;59.55
10261;BME280;5175;42.606;23.388;2023-02-02T00:18:00;93807.28;;;4.54;61.17
10261;BME280;5175;42.606;23.388;2023-02-02T00:20:27;93807.59;;;4.58;61.02
10261;BME280;5175;42.606;23.388;2023-02-02T00:22:54;93797.50;;;4.38;61.99
10261;BME280;5175;42.606;23.388;2023-02-02T00:25:21;93806.56;;;4.42;62.54
10261;BME280;5175;42.606;23.388;2023-02-02T00:27:49;93808.78;;;4.50;61.61
10261;BME280;5175;42.606;23.388;2023-02-02T00:30:16;93794.00;;;4.49;61.97
10261;BME280;5175;42.606;23.388;2023-02-02T00:32:42;93800.00;;;4.61;60.91
10261;BME280;5175;42.606;23.388;2023-02-02T00:35:12;93804.16;;;4.57;61.02
10261;BME280;5175;42.606;23.388;2023-02-02T00:37:40;93803.66;;;4.60;60.89
10261;BME280;5175;42.606;23.388;2023-02-02T00:40:08;93822.56;;;4.52;61.90
10261;BME280;5175;42.606;23.388;2023-02-02T00:42:35;93818.81;;;4.48;62.55
10261;BME280;5175;42.606;23.388;2023-02-02T00:45:04;93826.25;;;4.51;62.55
10261;BME280;5175;42.606;23.388;2023-02-02T00:47:42;93809.09;;;4.37;64.82
10261;BME280;5175;42.606;23.388;2023-02-02T00:50:11;93829.13;;;4.50;65.93
10261;BME280;5175;42.606;23.388;2023-02-02T00:52:38;93821.53;;;4.36;67.31
10261;BME280;5175;42.606;23.388;2023-02-02T00:55:06;93821.69;;;4.30;67.71
10261;BME280;5175;42.606;23.388;2023-02-02T00:57:33;93813.28;;;4.33;68.39
10261;BME280;5175;42.606;23.388;2023-02-02T01:00:00;93811.75;;;4.20;67.92
10261;BME280;5175;42.606;23.388;2023-02-02T01:02:28;93811.75;;;4.20;68.74
10261;BME280;5175;42.606;23.388;2023-02-02T01:04:56;93810.97;;;4.36;68.18
10261;BME280;5175;42.606;23.388;2023-02-02T01:07:23;93808.81;;;4.33;68.43
10261;BME280;5175;42.606;23.388;2023-02-02T01:09:49;93804.56;;;4.32;68.96
10261;BME280;5175;42.606;23.388;2023-02-02T01:12:16;93802.22;;;4.19;69.94
10261;BME280;5175;42.606;23.388;2023-02-02T01:14:43;93790.84;;;4.19;69.90
10261;BME280;5175;42.606;23.388;2023-02-02T01:17:10;93804.13;;;4.07;70.24
10261;BME280;5175;42.606;23.388;2023-02-02T01:19:38;93795.66;;;4.22;69.79
10261;BME280;5175;42.606;23.388;2023-02-02T01:22:05;93789.34;;;4.23;69.41
10261;BME280;5175;42.606;23.388;2023-02-02T01:24:32;93779.25;;;4.20;69.49
10261;BME280;5175;42.606;23.388;2023-02-02T01:26:59;93784.88;;;4.40;68.00
10261;BME280;5175;42.606;23.388;2023-02-02T01:29:26;93786.22;;;4.42;67.85
10261;BME280;5175;42.606;23.388;2023-02-02T01:31:53;93785.91;;;4.22;68.80
10261;BME280;5175;42.606;23.388;2023-02-02T01:34:19;93785.97;;;4.27;68.62
10261;BME280;5175;42.606;23.388;2023-02-02T01:36:47;93793.19;;;4.15;68.56
10261;BME280;5175;42.606;23.388;2023-02-02T01:39:14;93780.22;;;4.14;68.26
10261;BME280;5175;42.606;23.388;2023-02-02T01:41:41;93754.03;;;3.96;68.45
10261;BME280;5175;42.606;23.388;2023-02-02T01:47:07;93766.75;;;3.99;67.89
10261;BME280;5175;42.606;23.388;2023-02-02T01:49:34;93769.00;;;3.90;68.09
10261;BME280;5175;42.606;23.388;2023-02-02T01:52:04;93768.50;;;3.93;67.85
10261;BME280;5175;42.606;23.388;2023-02-02T01:54:33;93763.72;;;3.90;67.89
10261;BME280;5175;42.606;23.388;2023-02-02T01:57:12;93752.28;;;3.85;67.80
10261;BME280;5175;42.606;23.388;2023-02-02T01:59:41;93751.00;;;3.87;67.90
10261;BME280;5175;42.606;23.388;2023-02-02T02:02:09;93752.19;;;3.96;67.41
10261;BME280;5175;42.606;23.388;2023-02-02T02:04:36;93750.34;;;3.97;66.41
10261;BME280;5175;42.606;23.388;2023-02-02T02:07:05;93744.34;;;3.85;67.45
10261;BME280;5175;42.606;23.388;2023-02-02T02:09:33;93721.81;;;3.77;67.10
10261;BME280;5175;42.606;23.388;2023-02-02T02:11:59;93744.44;;;3.90;67.16
10261;BME280;5175;42.606;23.388;2023-02-02T02:14:26;93741.09;;;3.94;66.49
10261;BME280;5175;42.606;23.388;2023-02-02T02:17:29;93751.81;;;3.88;65.63
10261;BME280;5175;42.606;23.388;2023-02-02T02:20:33;93753.09;;;3.85;65.16
10261;BME280;5175;42.606;23.388;2023-02-02T02:23:48;93774.69;;;3.70;65.75
10261;BME280;5175;42.606;23.388;2023-02-02T02:26:58;93705.66;;;3.45;65.74
10261;BME280;5175;42.606;23.388;2023-02-02T02:32:25;93753.13;;;3.73;63.94
10261;BME280;5175;42.606;23.388;2023-02-02T02:34:57;93763.38;;;3.87;64.12
10261;BME280;5175;42.606;23.388;2023-02-02T02:37:36;93766.75;;;3.82;63.98
10261;BME280;5175;42.606;23.388;2023-02-02T02:40:10;93763.03;;;3.83;63.81
10261;BME280;5175;42.606;23.388;2023-02-02T02:42:42;93758.81;;;3.82;62.89
10261;BME280;5175;42.606;23.388;2023-02-02T02:45:10;93767.44;;;3.77;62.06
10261;BME280;5175;42.606;23.388;2023-02-02T02:47:40;93753.59;;;3.70;61.75
10261;BME280;5175;42.606;23.388;2023-02-02T02:50:08;93757.66;;;3.61;60.82
10261;BME280;5175;42.606;23.388;2023-02-02T02:52:35;93643.88;;;2.96;59.68
10261;BME280;5175;42.606;23.388;2023-02-02T02:55:04;93763.34;;;3.70;59.47
10261;BME280;5175;42.606;23.388;2023-02-02T02:57:53;93762.97;;;3.78;59.01
10261;BME280;5175;42.606;23.388;2023-02-02T03:00:36;93764.94;;;3.71;59.14
10261;BME280;5175;42.606;23.388;2023-02-02T03:03:16;93765.59;;;3.78;57.93
10261;BME280;5175;42.606;23.388;2023-02-02T03:05:51;93768.94;;;3.73;57.20
10261;BME280;5175;42.606;23.388;2023-02-02T03:08:24;93766.06;;;3.75;57.39
10261;BME280;5175;42.606;23.388;2023-02-02T03:10:54;93763.13;;;3.71;59.22
10261;BME280;5175;42.606;23.388;2023-02-02T03:13:22;93751.38;;;3.79;60.07
10261;BME280;5175;42.606;23.388;2023-02-02T03:15:49;93763.94;;;3.89;56.93
10261;BME280;5175;42.606;23.388;2023-02-02T03:18:19;93753.31;;;3.84;58.96
10261;BME280;5175;42.606;23.388;2023-02-02T03:20:47;93751.72;;;3.83;60.84
10261;BME280;5175;42.606;23.388;2023-02-02T03:23:14;93752.19;;;3.79;62.39
10261;BME280;5175;42.606;23.388;2023-02-02T03:25:41;93751.28;;;3.74;61.19
10261;BME280;5175;42.606;23.388;2023-02-02T03:28:08;93754.75;;;3.91;59.67
10261;BME280;5175;42.606;23.388;2023-02-02T03:30:36;93751.72;;;3.83;60.37
10261;BME280;5175;42.606;23.388;2023-02-02T03:33:04;93753.38;;;3.89;61.10
10261;BME280;5175;42.606;23.388;2023-02-02T03:35:32;93745.47;;;3.89;59.80
10261;BME280;5175;42.606;23.388;2023-02-02T03:37:59;93751.31;;;3.91;60.28
10261;BME280;5175;42.606;23.388;2023-02-02T03:40:26;93734.22;;;3.65;60.21
10261;BME280;5175;42.606;23.388;2023-02-02T03:42:53;93760.19;;;3.85;60.50
10261;BME280;5175;42.606;23.388;2023-02-02T03:45:20;93763.94;;;3.89;60.61
10261;BME280;5175;42.606;23.388;2023-02-02T03:47:47;93760.56;;;3.76;62.29
10261;BME280;5175;42.606;23.388;2023-02-02T03:50:14;93757.00;;;3.83;62.89
10261;BME280;5175;42.606;23.388;2023-02-02T03:52:42;93756.75;;;3.84;63.18
10261;BME280;5175;42.606;23.388;2023-02-02T03:55:08;93761.22;;;3.84;63.69
10261;BME280;5175;42.606;23.388;2023-02-02T03:57:35;93768.03;;;3.79;64.07
10261;BME280;5175;42.606;23.388;2023-02-02T04:00:03;93772.81;;;3.83;64.29
10261;BME280;5175;42.606;23.388;2023-02-02T04:02:30;93770.47;;;3.69;64.42
10261;BME280;5175;42.606;23.388;2023-02-02T04:04:56;93769.97;;;3.72;64.00
10261;BME280;5175;42.606;23.388;2023-02-02T04:07:23;93768.88;;;3.68;64.19
10261;BME280;5175;42.606;23.388;2023-02-02T04:09:51;93770.94;;;3.66;64.98
10261;BME280;5175;42.606;23.388;2023-02-02T04:12:18;93765.59;;;3.50;66.89
10261;BME280;5175;42.606;23.388;2023-02-02T04:14:44;93770.84;;;3.33;68.26
10261;BME280;5175;42.606;23.388;2023-02-02T04:17:11;93769.94;;;3.28;68.51
10261;BME280;5175;42.606;23.388;2023-02-02T04:19:38;93771.53;;;3.29;69.64
10261;BME280;5175;42.606;23.388;2023-02-02T04:22:05;93773.28;;;3.11;70.87
10261;BME280;5175;42.606;23.388;2023-02-02T04:24:31;93768.09;;;2.42;74.44
10261;BME280;5175;42.606;23.388;2023-02-02T04:26:59;93765.69;;;2.17;76.91
10261;BME280;5175;42.606;23.388;2023-02-02T04:29:26;93765.13;;;2.38;74.40
10261;BME280;5175;42.606;23.388;2023-02-02T04:31:53;93772.81;;;2.51;75.53
10261;BME280;5175;42.606;23.388;2023-02-02T04:34:20;93777.03;;;2.52;75.25
10261;BME280;5175;42.606;23.388;2023-02-02T04:36:47;93747.72;;;2.37;75.27
10261;BME280;5175;42.606;23.388;2023-02-02T04:39:13;93770.03;;;2.12;77.19
10261;BME280;5175;42.606;23.388;2023-02-02T04:41:40;93767.38;;;2.00;78.02
10261;BME280;5175;42.606;23.388;2023-02-02T04:44:12;93766.00;;;1.98;77.92
10261;BME280;5175;42.606;23.388;2023-02-02T04:46:40;93757.75;;;2.06;77.63
10261;BME280;5175;42.606;23.388;2023-02-02T04:49:08;93771.38;;;2.03;77.74
10261;BME280;5175;42.606;23.388;2023-02-02T04:51:35;93784.50;;;1.91;77.43
10261;BME280;5175;42.606;23.388;2023-02-02T04:54:02;93775.44;;;1.75;77.97
10261;BME280;5175;42.606;23.388;2023-02-02T04:56:29;93780.94;;;1.85;78.68
10261;BME280;5175;42.606;23.388;2023-02-02T04:58:56;93781.06;;;1.79;78.21
10261;BME280;5175;42.606;23.388;2023-02-02T05:01:24;93775.09;;;1.72;78.57
10261;BME280;5175;42.606;23.388;2023-02-02T05:03:51;93777.41;;;1.50;80.05
10261;BME280;5175;42.606;23.388;2023-02-02T05:06:18;93781.59;;;1.40;80.51
10261;BME280;5175;42.606;23.388;2023-02-02T05:08:45;93778.03;;;1.34;81.33
10261;BME280;5175;42.606;23.388;2023-02-02T05:11:13;93781.81;;;1.38;80.61
10261;BME280;5175;42.606;23.388;2023-02-02T05:13:44;93774.91;;;1.25;81.08
10261;BME280;5175;42.606;23.388;2023-02-02T05:16:11;93777.41;;;1.50;77.16
10261;BME280;5175;42.606;23.388;2023-02-02T05:18:39;93780.75;;;1.57;77.32
10261;BME280;5175;42.606;23.388;2023-02-02T05:21:05;93771.97;;;1.63;77.02
10261;BME280;5175;42.606;23.388;2023-02-02T05:23:32;93775.09;;;1.72;75.65
10261;BME280;5175;42.606;23.388;2023-02-02T05:25:59;93777.03;;;1.76;73.97
10261;BME280;5175;42.606;23.388;2023-02-02T05:28:25;93783.44;;;1.80;74.11
10261;BME280;5175;42.606;23.388;2023-02-02T05:30:53;93757.38;;;1.90;72.74
10261;BME280;5175;42.606;23.388;2023-02-02T05:33:20;93778.34;;;1.97;72.70
10261;BME280;5175;42.606;23.388;2023-02-02T05:35:48;93773.91;;;2.09;71.29
10261;BME280;5175;42.606;23.388;2023-02-02T05:38:16;93772.41;;;2.13;71.20
10261;BME280;5175;42.606;23.388;2023-02-02T05:40:42;93774.59;;;2.16;70.91
10261;BME280;5175;42.606;23.388;2023-02-02T05:43:09;93789.50;;;2.22;71.05
10261;BME280;5175;42.606;23.388;2023-02-02T05:45:36;93789.03;;;2.25;71.49
10261;BME280;5175;42.606;23.388;2023-02-02T05:48:03;93795.06;;;2.14;73.61
10261;BME280;5175;42.606;23.388;2023-02-02T05:50:29;93787.06;;;2.09;74.93
10261;BME280;5175;42.606;23.388;2023-02-02T05:52:58;93777.91;;;2.00;76.31
10261;BME280;5175;42.606;23.388;2023-02-02T05:55:25;93789.56;;;2.04;75.80
10261;BME280;5175;42.606;23.388;2023-02-02T05:57:51;93789.75;;;1.91;76.07
10261;BME280;5175;42.606;23.388;2023-02-02T06:00:19;93798.75;;;1.72;79.75
10261;BME280;5175;42.606;23.388;2023-02-02T06:02:45;93792.19;;;1.33;84.67
10261;BME280;5175;42.606;23.388;2023-02-02T06:05:12;93788.31;;;1.36;86.15
10261;BME280;5175;42.606;23.388;2023-02-02T06:07:39;93799.28;;;0.78;90.82
10261;BME280;5175;42.606;23.388;2023-02-02T06:10:08;93809.53;;;1.04;88.51
10261;BME280;5175;42.606;23.388;2023-02-02T06:12:35;93801.47;;;1.36;88.37
10261;BME280;5175;42.606;23.388;2023-02-02T06:15:01;93801.41;;;1.24;90.88
10261;BME280;5175;42.606;23.388;2023-02-02T06:17:28;93794.97;;;1.38;91.40
10261;BME280;5175;42.606;23.388;2023-02-02T06:19:55;93800.13;;;1.45;90.51
10261;BME280;5175;42.606;23.388;2023-02-02T06:22:21;93798.97;;;1.41;91.47
10261;BME280;5175;42.606;23.388;2023-02-02T06:24:48;93797.03;;;1.36;91.52
10261;BME280;5175;42.606;23.388;2023-02-02T06:27:19;93808.06;;;1.56;89.60
10261;BME280;5175;42.606;23.388;2023-02-02T06:29:45;93815.28;;;1.61;90.31
10261;BME280;5175;42.606;23.388;2023-02-02T06:32:12;93823.69;;;1.69;89.75
10261;BME280;5175;42.606;23.388;2023-02-02T06:34:39;93826.69;;;1.84;89.23
10261;BME280;5175;42.606;23.388;2023-02-02T06:37:06;93828.00;;;1.64;97.45
10261;BME280;5175;42.606;23.388;2023-02-02T06:39:32;93827.59;;;1.90;95.73
10261;BME280;5175;42.606;23.388;2023-02-02T06:41:59;93828.41;;;1.90;93.74
10261;BME280;5175;42.606;23.388;2023-02-02T06:44:27;93825.72;;;1.97;91.64
10261;BME280;5175;42.606;23.388;2023-02-02T06:46:54;93839.88;;;1.96;91.45
10261;BME280;5175;42.606;23.388;2023-02-02T06:49:21;93842.69;;;2.13;90.25
10261;BME280;5175;42.606;23.388;2023-02-02T06:51:48;93844.50;;;2.24;88.90
10261;BME280;5175;42.606;23.388;2023-02-02T06:54:15;93836.41;;;2.25;88.34
10261;BME280;5175;42.606;23.388;2023-02-02T06:56:41;93832.16;;;1.83;90.87
10261;BME280;5175;42.606;23.388;2023-02-02T06:59:08;93826.16;;;2.06;89.58
10261;BME280;5175;42.606;23.388;2023-02-02T07:01:36;93835.13;;;2.16;88.81
10261;BME280;5175;42.606;23.388;2023-02-02T07:04:03;93836.22;;;2.38;86.34
10261;BME280;5175;42.606;23.388;2023-02-02T07:06:30;93834.03;;;2.35;86.02
10261;BME280;5175;42.606;23.388;2023-02-02T07:08:57;93849.22;;;2.22;86.29
10261;BME280;5175;42.606;23.388;2023-02-02T07:11:23;93865.94;;;2.27;87.36
10261;BME280;5175;42.606;23.388;2023-02-02T07:13:50;93862.75;;;2.37;87.11
10261;BME280;5175;42.606;23.388;2023-02-02T07:16:17;93850.72;;;1.88;91.50
10261;BME280;5175;42.606;23.388;2023-02-02T07:18:45;93855.16;;;1.87;92.04
10261;BME280;5175;42.606;23.388;2023-02-02T07:21:18;93854.84;;;1.96;92.20
10261;BME280;5175;42.606;23.388;2023-02-02T07:23:45;93847.63;;;2.32;90.69
10261;BME280;5175;42.606;23.388;2023-02-02T07:26:13;93848.19;;;2.23;90.53
10261;BME280;5175;42.606;23.388;2023-02-02T07:28:40;93849.50;;;2.02;91.38
10261;BME280;5175;42.606;23.388;2023-02-02T07:31:14;93847.16;;;2.24;90.76
10261;BME280;5175;42.606;23.388;2023-02-02T07:33:41;93860.56;;;2.34;89.96
10261;BME280;5175;42.606;23.388;2023-02-02T07:36:10;93853.16;;;2.42;89.48
10261;BME280;5175;42.606;23.388;2023-02-02T07:38:38;93852.59;;;1.99;92.09
10261;BME280;5175;42.606;23.388;2023-02-02T07:41:05;93865.69;;;2.29;91.42
10261;BME280;5175;42.606;23.388;2023-02-02T07:43:32;93859.66;;;2.40;90.25
10261;BME280;5175;42.606;23.388;2023-02-02T07:45:59;93853.03;;;2.37;91.59
10261;BME280;5175;42.606;23.388;2023-02-02T07:48:28;93857.16;;;2.33;87.49
10261;BME280;5175;42.606;23.388;2023-02-02T07:50:58;93846.63;;;2.45;86.81
10261;BME280;5175;42.606;23.388;2023-02-02T07:53:27;93832.66;;;2.68;82.62
10261;BME280;5175;42.606;23.388;2023-02-02T07:56:04;93845.50;;;3.10;79.09
10261;BME280;5175;42.606;23.388;2023-02-02T07:58:31;93846.03;;;3.36;78.63
10261;BME280;5175;42.606;23.388;2023-02-02T08:01:00;93830.38;;;3.57;77.37
10261;BME280;5175;42.606;23.388;2023-02-02T08:03:27;93819.97;;;3.79;74.35
10261;BME280;5175;42.606;23.388;2023-02-02T08:05:53;93822.81;;;4.06;73.08
10261;BME280;5175;42.606;23.388;2023-02-02T08:08:20;93824.91;;;4.49;69.46
10261;BME280;5175;42.606;23.388;2023-02-02T08:10:48;93828.19;;;4.72;67.66
10261;BME280;5175;42.606;23.388;2023-02-02T08:13:15;93815.22;;;5.09;66.68
10261;BME280;5175;42.606;23.388;2023-02-02T08:15:42;93798.66;;;5.35;64.04
10261;BME280;5175;42.606;23.388;2023-02-02T08:18:08;93809.91;;;5.69;62.69
10261;BME280;5175;42.606;23.388;2023-02-02T08:20:35;93810.19;;;6.16;61.18
10261;BME280;5175;42.606;23.388;2023-02-02T08:23:02;93809.16;;;6.49;58.06
10261;BME280;5175;42.606;23.388;2023-02-02T08:25:29;93807.66;;;6.63;58.85
10261;BME280;5175;42.606;23.388;2023-02-02T08:27:57;93812.06;;;6.84;58.89
10261;BME280;5175;42.606;23.388;2023-02-02T08:30:25;93806.72;;;6.79;63.16
10261;BME280;5175;42.606;23.388;2023-02-02T08:32:52;93818.28;;;6.31;65.74
10261;BME280;5175;42.606;23.388;2023-02-02T08:35:19;93805.16;;;6.19;67.33
10261;BME280;5175;42.606;23.388;2023-02-02T08:37:46;93777.34;;;5.90;68.97
10261;BME280;5175;42.606;23.388;2023-02-02T08:40:13;93790.47;;;6.07;68.23
10261;BME280;5175;42.606;23.388;2023-02-02T08:42:40;93807.38;;;6.27;68.50
10261;BME280;5175;42.606;23.388;2023-02-02T08:45:09;93799.22;;;6.34;67.93
10261;BME280;5175;42.606;23.388;2023-02-02T08:47:36;93814.91;;;6.14;66.77
10261;BME280;5175;42.606;23.388;2023-02-02T08:50:03;93811.56;;;6.23;66.78
10261;BME280;5175;42.606;23.388;2023-02-02T08:52:31;93783.69;;;5.89;68.89
10261;BME280;5175;42.606;23.388;2023-02-02T08:54:57;93790.00;;;5.88;69.29
10261;BME280;5175;42.606;23.388;2023-02-02T08:57:24;93808.47;;;5.83;67.40
10261;BME280;5175;42.606;23.388;2023-02-02T08:59:52;93797.16;;;5.66;68.23
10261;BME280;5175;42.606;23.388;2023-02-02T09:02:20;93801.91;;;5.86;69.50
10261;BME280;5175;42.606;23.388;2023-02-02T09:04:47;93790.47;;;5.80;69.51
10261;BME280;5175;42.606;23.388;2023-02-02T09:07:13;93736.19;;;5.34;68.90
10261;BME280;5175;42.606;23.388;2023-02-02T09:09:40;93801.75;;;5.76;68.69
10261;BME280;5175;42.606;23.388;2023-02-02T09:12:07;93796.13;;;5.67;69.65
10261;BME280;5175;42.606;23.388;2023-02-02T09:14:33;93789.72;;;5.63;69.89
10261;BME280;5175;42.606;23.388;2023-02-02T09:17:00;93788.38;;;5.39;69.35
10261;BME280;5175;42.606;23.388;2023-02-02T09:19:29;93713.22;;;5.13;70.41
10261;BME280;5175;42.606;23.388;2023-02-02T09:21:55;93764.22;;;5.52;71.21
10261;BME280;5175;42.606;23.388;2023-02-02T09:24:22;93761.50;;;5.47;72.26
10261;BME280;5175;42.606;23.388;2023-02-02T09:26:49;93772.91;;;5.74;71.37
10261;BME280;5175;42.606;23.388;2023-02-02T09:29:16;93730.16;;;5.60;70.57
10261;BME280;5175;42.606;23.388;2023-02-02T09:31:43;93775.13;;;6.09;69.38
10261;BME280;5175;42.606;23.388;2023-02-02T09:34:13;93741.56;;;6.14;69.23
10261;BME280;5175;42.606;23.388;2023-02-02T09:36:42;93780.22;;;6.47;67.33
10261;BME280;5175;42.606;23.388;2023-02-02T09:39:10;93733.56;;;6.09;64.74
10261;BME280;5175;42.606;23.388;2023-02-02T09:42:08;93765.19;;;6.89;65.72
10261;BME280;5175;42.606;23.388;2023-02-02T09:44:55;93758.47;;;7.19;64.34
10261;BME280;5175;42.606;23.388;2023-02-02T09:47:31;93772.91;;;6.96;62.00
10261;BME280;5175;42.606;23.388;2023-02-02T09:50:10;93766.56;;;7.49;61.12
10261;BME280;5175;42.606;23.388;2023-02-02T09:52:43;93762.28;;;7.43;60.60
10261;BME280;5175;42.606;23.388;2023-02-02T09:55:14;93770.69;;;7.30;59.83
10261;BME280;5175;42.606;23.388;2023-02-02T09:57:44;93773.56;;;7.18;60.39
10261;BME280;5175;42.606;23.388;2023-02-02T10:00:22;93740.88;;;7.08;61.69
10261;BME280;5175;42.606;23.388;2023-02-02T10:02:52;93751.06;;;7.26;59.43
10261;BME280;5175;42.606;23.388;2023-02-02T10:05:27;93765.00;;;7.63;58.96
10261;BME280;5175;42.606;23.388;2023-02-02T10:08:00;93755.25;;;7.84;58.04
10261;BME280;5175;42.606;23.388;2023-02-02T10:10:31;93742.53;;;7.96;58.80
10261;BME280;5175;42.606;23.388;2023-02-02T10:13:04;93719.38;;;7.76;59.47
10261;BME280;5175;42.606;23.388;2023-02-02T10:15:39;93731.34;;;7.84;58.57
10261;BME280;5175;42.606;23.388;2023-02-02T10:18:11;93734.78;;;7.84;58.02
10261;BME280;5175;42.606;23.388;2023-02-02T10:20:43;93746.25;;;7.90;57.99
10261;BME280;5175;42.606;23.388;2023-02-02T10:23:22;93729.78;;;8.03;54.54
10261;BME280;5175;42.606;23.388;2023-02-02T10:25:55;93728.78;;;8.39;54.44
10261;BME280;5175;42.606;23.388;2023-02-02T10:28:33;93728.25;;;8.47;53.83
10261;BME280;5175;42.606;23.388;2023-02-02T10:31:15;93723.13;;;8.91;52.56
10261;BME280;5175;42.606;23.388;2023-02-02T10:33:47;93719.34;;;9.22;51.00
10261;BME280;5175;42.606;23.388;2023-02-02T10:36:22;93727.78;;;9.50;51.84
10261;BME280;5175;42.606;23.388;2023-02-02T10:38:59;93729.78;;;9.78;50.20
10261;BME280;5175;42.606;23.388;2023-02-02T10:41:32;93714.47;;;9.98;49.25
10261;BME280;5175;42.606;23.388;2023-02-02T10:44:14;93701.41;;;10.41;48.93
10261;BME280;5175;42.606;23.388;2023-02-02T10:46:44;93703.47;;;10.49;47.55
10261;BME280;5175;42.606;23.388;2023-02-02T10:49:21;93694.69;;;10.04;46.51
10261;BME280;5175;42.606;23.388;2023-02-02T10:51:54;93692.41;;;9.88;45.48
10261;BME280;5175;42.606;23.388;2023-02-02T10:54:36;93684.00;;;10.09;45.92
10261;BME280;5175;42.606;23.388;2023-02-02T10:57:08;93681.44;;;9.94;45.89
10261;BME280;5175;42.606;23.388;2023-02-02T10:59:40;93674.16;;;9.66;43.67
10261;BME280;5175;42.606;23.388;2023-02-02T11:02:11;93673.03;;;9.77;44.91
10261;BME280;5175;42.606;23.388;2023-02-02T11:04:38;93662.38;;;9.77;45.53
10261;BME280;5175;42.606;23.388;2023-02-02T11:07:23;93647.47;;;9.22;44.74
10261;BME280;5175;42.606;23.388;2023-02-02T11:09:51;93672.63;;;8.81;45.19
10261;BME280;5175;42.606;23.388;2023-02-02T11:12:23;93683.22;;;8.91;44.53
10261;BME280;5175;42.606;23.388;2023-02-02T11:14:54;93660.69;;;8.58;45.13
10261;BME280;5175;42.606;23.388;2023-02-02T11:17:23;93668.13;;;8.71;46.07
10261;BME280;5175;42.606;23.388;2023-02-02T11:19:51;93637.34;;;8.35;45.48
10261;BME280;5175;42.606;23.388;2023-02-02T11:22:25;93667.13;;;8.47;45.38
10261;BME280;5175;42.606;23.388;2023-02-02T11:24:56;93657.81;;;8.50;45.66
10261;BME280;5175;42.606;23.388;2023-02-02T11:27:25;93609.19;;;8.34;45.90
10261;BME280;5175;42.606;23.388;2023-02-02T11:29:54;93645.03;;;8.57;46.31
10261;BME280;5175;42.606;23.388;2023-02-02T11:32:27;93624.28;;;8.59;45.87
10261;BME280;5175;42.606;23.388;2023-02-02T11:35:14;93634.63;;;8.65;46.28
10261;BME280;5175;42.606;23.388;2023-02-02T11:37:55;93627.16;;;8.77;45.36
10261;BME280;5175;42.606;23.388;2023-02-02T11:40:31;93618.53;;;9.06;46.16
10261;BME280;5175;42.606;23.388;2023-02-02T11:43:02;93615.19;;;9.39;45.35
10261;BME280;5175;42.606;23.388;2023-02-02T11:45:33;93611.47;;;9.79;45.17
10261;BME280;5175;42.606;23.388;2023-02-02T11:48:03;93619.59;;;9.97;43.77
10261;BME280;5175;42.606;23.388;2023-02-02T11:50:31;93610.63;;;10.22;44.33
10261;BME280;5175;42.606;23.388;2023-02-02T11:52:57;93624.84;;;9.69;43.11
10261;BME280;5175;42.606;23.388;2023-02-02T11:55:26;93612.91;;;9.61;44.27
10261;BME280;5175;42.606;23.388;2023-02-02T11:58:20;93607.84;;;9.65;43.73
10261;BME280;5175;42.606;23.388;2023-02-02T12:00:51;93602.88;;;9.48;44.18
10261;BME280;5175;42.606;23.388;2023-02-02T12:03:23;93604.72;;;9.48;44.29
10261;BME280;5175;42.606;23.388;2023-02-02T12:05:50;93592.06;;;9.34;44.74
10261;BME280;5175;42.606;23.388;2023-02-02T12:08:17;93594.09;;;8.99;44.84
10261;BME280;5175;42.606;23.388;2023-02-02T12:10:51;93560.16;;;8.75;43.22
10261;BME280;5175;42.606;23.388;2023-02-02T12:13:30;93590.13;;;8.86;43.73
10261;BME280;5175;42.606;23.388;2023-02-02T12:16:09;93593.41;;;8.63;43.58
10261;BME280;5175;42.606;23.388;2023-02-02T12:18:46;93594.97;;;8.74;43.17
10261;BME280;5175;42.606;23.388;2023-02-02T12:21:22;93579.66;;;8.36;43.76
10261;BME280;5175;42.606;23.388;2023-02-02T12:24:03;93588.09;;;8.63;43.39
10261;BME280;5175;42.606;23.388;2023-02-02T12:26:38;93585.47;;;8.53;43.73
10261;BME280;5175;42.606;23.388;2023-02-02T12:29:20;93581.25;;;8.47;43.82
10261;BME280;5175;42.606;23.388;2023-02-02T12:32:10;93578.28;;;8.53;44.40
10261;BME280;5175;42.606;23.388;2023-02-02T12:34:51;93581.28;;;8.37;44.55
10261;BME280;5175;42.606;23.388;2023-02-02T12:37:28;93592.94;;;8.41;44.42
10261;BME280;5175;42.606;23.388;2023-02-02T12:40:13;93582.03;;;8.47;45.90
10261;BME280;5175;42.606;23.388;2023-02-02T12:42:57;93593.75;;;8.36;45.80
10261;BME280;5175;42.606;23.388;2023-02-02T12:48:41;93578.34;;;8.08;47.12
10261;BME280;5175;42.606;23.388;2023-02-02T12:51:19;93588.97;;;8.33;44.93
10261;BME280;5175;42.606;23.388;2023-02-02T12:54:04;93586.59;;;8.37;43.14
10261;BME280;5175;42.606;23.388;2023-02-02T12:56:42;93592.94;;;8.36;43.50
10261;BME280;5175;42.606;23.388;2023-02-02T12:59:19;93591.59;;;8.43;44.14
10261;BME280;5175;42.606;23.388;2023-02-02T13:01:59;93590.56;;;8.39;44.16
10261;BME280;5175;42.606;23.388;2023-02-02T13:04:36;93586.28;;;8.43;44.02
10261;BME280;5175;42.606;23.388;2023-02-02T13:07:22;93602.53;;;8.37;43.63
10261;BME280;5175;42.606;23.388;2023-02-02T13:10:00;93593.16;;;8.64;44.70
10261;BME280;5175;42.606;23.388;2023-02-02T13:12:32;93589.41;;;8.75;44.21
10261;BME280;5175;42.606;23.388;2023-02-02T13:15:02;93563.56;;;8.76;44.58
10261;BME280;5175;42.606;23.388;2023-02-02T13:17:38;93584.78;;;8.96;45.03
10261;BME280;5175;42.606;23.388;2023-02-02T13:20:15;93598.88;;;8.97;46.37
10261;BME280;5175;42.606;23.388;2023-02-02T13:22:45;93588.28;;;8.87;44.18
10261;BME280;5175;42.606;23.388;2023-02-02T13:25:17;93585.03;;;9.00;45.63
10261;BME280;5175;42.606;23.388;2023-02-02T13:27:45;93587.38;;;9.11;43.44
10261;BME280;5175;42.606;23.388;2023-02-02T13:30:24;93577.47;;;9.22;44.74
10261;BME280;5175;42.606;23.388;2023-02-02T13:32:57;93597.44;;;9.19;44.32
10261;BME280;5175;42.606;23.388;2023-02-02T13:35:28;93593.28;;;8.98;43.76